Time;durP1;ratioP1;P1;durP2;ratioP2;P2;SDS_P1;SDS_P2;PMS_P1;PMS_P2;Temp;Humidity;BMP_temperature;BMP_pressure;BME280_temperature;BME280_humidity;BME280_pressure;Samples;Min_cycle;Max_cycle;Signal;HPM_P1;HPM_P2
2020/12/02 00:01:33;;;;;;;0.20;0.10;;;;;;;3.23;100.00;100585.66;5053178;28;20438;-52
2020/12/02 00:04:10;;;;;;;0.97;0.97;;;;;;;3.22;100.00;100580.41;5052873;28;20447;-52
2020/12/02 00:06:39;;;;;;;0.20;0.10;;;;;;;3.11;100.00;100567.19;5052743;28;20453;-52
2020/12/02 00:09:12;;;;;;;0.20;0.13;;;;;;;3.09;100.00;100570.69;5052574;28;20464;-52
2020/12/02 00:11:39;;;;;;;0.20;0.10;;;;;;;3.19;100.00;100573.38;5053053;28;20483;-52
2020/12/02 00:14:12;;;;;;;0.20;0.10;;;;;;;3.29;100.00;100563.81;5052605;28;20557;-52
2020/12/02 00:16:38;;;;;;;0.20;0.20;;;;;;;3.26;100.00;100580.41;5052514;28;20475;-52
2020/12/02 00:19:05;;;;;;;0.20;0.10;;;;;;;3.46;100.00;100574.41;5052943;28;20462;-52
2020/12/02 00:21:33;;;;;;;0.30;0.10;;;;;;;3.27;100.00;100570.78;5052358;28;20439;-52
2020/12/02 00:24:00;;;;;;;0.20;0.10;;;;;;;3.24;100.00;100573.41;5052564;28;20948;-52
2020/12/02 00:26:27;;;;;;;0.20;0.20;;;;;;;3.29;100.00;100574.31;5047044;28;20555;-52
2020/12/02 00:28:56;;;;;;;0.20;0.10;;;;;;;3.20;100.00;100569.88;5044893;28;20554;-53
2020/12/02 00:31:23;;;;;;;1.97;1.80;;;;;;;3.41;100.00;100578.72;5052527;28;20738;-51
2020/12/02 00:33:49;;;;;;;0.30;0.30;;;;;;;3.32;100.00;100576.06;5052249;28;20931;-54
2020/12/02 00:36:16;;;;;;;4.63;3.30;;;;;;;3.25;100.00;100567.28;5052402;28;20516;-53
2020/12/02 00:38:43;;;;;;;0.20;0.20;;;;;;;3.29;100.00;100576.94;5050531;28;20909;-51
2020/12/02 00:41:10;;;;;;;0.27;0.17;;;;;;;3.13;100.00;100567.19;5040788;28;20520;-52
2020/12/02 00:43:37;;;;;;;0.20;0.20;;;;;;;3.22;100.00;100576.00;5052115;28;20459;-52
2020/12/02 00:46:04;;;;;;;0.20;0.10;;;;;;;3.10;100.00;100572.44;5051953;28;20467;-52
2020/12/02 00:48:32;;;;;;;0.30;0.20;;;;;;;3.05;100.00;100569.78;5051773;28;20481;-51
2020/12/02 00:51:01;;;;;;;0.20;0.10;;;;;;;3.10;100.00;100570.69;5052062;28;20494;-51
2020/12/02 00:53:34;;;;;;;0.20;0.10;;;;;;;3.02;100.00;100566.28;5052285;28;20451;-51
2020/12/02 00:56:01;;;;;;;0.20;0.10;;;;;;;3.15;100.00;100558.47;5049171;28;20438;-53
2020/12/02 00:59:00;;;;;;;0.20;0.10;;;;;;;3.15;100.00;100558.47;5048497;28;20474;-51
2020/12/02 01:01:41;;;;;;;0.20;0.20;;;;;;;2.92;100.00;100562.69;5051841;28;20879;-51
2020/12/02 01:04:14;;;;;;;0.20;0.10;;;;;;;3.06;100.00;100563.66;5051920;28;20835;-51
2020/12/02 01:06:43;;;;;;;2.10;2.00;;;;;;;3.06;100.00;100561.03;5052007;28;20546;-51
2020/12/02 01:09:10;;;;;;;0.20;0.10;;;;;;;2.94;100.00;100558.34;5051828;28;20451;-51
2020/12/02 01:11:37;;;;;;;0.20;0.10;;;;;;;3.14;100.00;100567.19;5046874;28;20487;-51
2020/12/02 01:14:08;;;;;;;0.20;0.10;;;;;;;2.95;100.00;100571.47;5043532;28;20443;-51
2020/12/02 01:16:38;;;;;;;0.43;0.43;;;;;;;3.08;100.00;100568.94;5051801;28;20443;-51
2020/12/02 01:19:08;;;;;;;0.20;0.10;;;;;;;3.03;100.00;100560.16;5052119;28;20446;-51
2020/12/02 01:21:38;;;;;;;0.20;0.20;;;;;;;3.02;100.00;100567.16;5051656;28;20993;-51
2020/12/02 01:24:13;;;;;;;0.20;0.10;;;;;;;3.14;100.00;100571.56;5051888;28;20439;-51
2020/12/02 01:26:44;;;;;;;0.20;0.10;;;;;;;3.16;100.00;100581.25;5044395;28;20470;-51
2020/12/02 01:29:18;;;;;;;0.20;0.20;;;;;;;3.21;100.00;100583.88;5046759;28;20458;-51
2020/12/02 01:31:48;;;;;;;0.20;0.10;;;;;;;3.18;100.00;100579.50;5051972;28;21049;-52
2020/12/02 01:34:14;;;;;;;0.20;0.10;;;;;;;3.24;100.00;100586.53;5051310;28;20842;-51
2020/12/02 01:37:02;;;;;;;0.20;0.10;;;;;;;3.38;100.00;100587.47;5051711;28;20471;-51
2020/12/02 01:39:31;;;;;;;0.20;0.10;;;;;;;3.37;100.00;100583.09;5039551;28;20455;-51
2020/12/02 01:41:57;;;;;;;0.20;0.10;;;;;;;3.31;100.00;100580.44;5054994;28;20446;-52
2020/12/02 01:44:24;;;;;;;0.40;0.40;;;;;;;3.37;100.00;100583.09;5055477;28;20519;-51
2020/12/02 01:47:07;;;;;;;0.20;0.10;;;;;;;3.72;100.00;100577.13;5055054;28;20524;-51
2020/12/02 01:49:49;;;;;;;0.20;0.20;;;;;;;3.46;100.00;100577.91;5053977;28;20814;-51
2020/12/02 01:52:53;;;;;;;0.20;0.10;;;;;;;3.72;100.00;100574.50;5055145;28;20485;-51
2020/12/02 01:55:30;;;;;;;0.20;0.10;;;;;;;3.55;100.00;100572.66;5055337;28;20550;-51
2020/12/02 01:58:02;;;;;;;0.20;0.10;;;;;;;3.59;100.00;100572.69;5036102;28;20464;-52
2020/12/02 02:00:33;;;;;;;0.30;0.20;;;;;;;3.39;100.00;100580.47;5042166;28;20500;-51
2020/12/02 02:03:16;;;;;;;0.20;0.20;;;;;;;3.45;100.00;100578.78;5054820;28;20445;-52
2020/12/02 02:06:04;;;;;;;0.20;0.10;;;;;;;3.38;100.00;100576.09;5054896;28;20936;-51
2020/12/02 02:08:34;;;;;;;0.20;0.10;;;;;;;3.52;100.00;100572.66;5054888;28;20492;-51
2020/12/02 02:11:05;;;;;;;0.20;0.10;;;;;;;3.39;100.00;100572.59;5055047;28;20509;-51
2020/12/02 02:14:11;;;;;;;0.20;0.10;;;;;;;3.51;100.00;100565.66;5042506;28;20529;-51
2020/12/02 02:16:43;;;;;;;0.20;0.10;;;;;;;3.20;100.00;100569.00;5041173;28;20481;-52
2020/12/02 02:19:23;;;;;;;0.20;0.10;;;;;;;3.22;100.00;100569.88;5054729;28;20450;-53
2020/12/02 02:21:56;;;;;;;0.20;0.10;;;;;;;3.27;100.00;100568.16;5043542;28;20450;-51
2020/12/02 02:24:23;;;;;;;0.20;0.10;;;;;;;3.32;100.00;100570.81;5054715;28;20439;-51
2020/12/02 02:26:51;;;;;;;0.20;0.20;;;;;;;3.31;100.00;100567.31;5046125;28;20529;-51
2020/12/02 02:29:35;;;;;;;0.20;0.10;;;;;;;3.36;100.00;100568.22;5051428;28;20451;-51
2020/12/02 02:32:04;;;;;;;0.20;0.20;;;;;;;3.46;100.00;100561.25;5054536;28;20505;-51
2020/12/02 02:34:32;;;;;;;0.20;0.10;;;;;;;3.28;100.00;100564.66;5054644;28;20447;-52
2020/12/02 02:37:01;;;;;;;0.20;0.10;;;;;;;3.25;100.00;100567.28;5054480;28;20532;-51
2020/12/02 02:39:28;;;;;;;0.20;0.10;;;;;;;3.31;100.00;100562.06;5047274;28;20455;-51
2020/12/02 02:42:22;;;;;;;0.20;0.10;;;;;;;3.33;100.00;100559.44;5047527;28;20450;-53
2020/12/02 02:44:48;;;;;;;0.57;0.57;;;;;;;3.46;100.00;100556.88;5053062;28;20439;-51
2020/12/02 02:47:14;;;;;;;0.20;0.10;;;;;;;3.28;100.00;100552.41;5053712;28;20497;-52
2020/12/02 02:49:41;;;;;;;0.20;0.10;;;;;;;3.08;100.00;100551.41;5054390;28;20533;-51
2020/12/02 02:52:08;;;;;;;0.20;0.10;;;;;;;3.12;100.00;100561.06;5053228;28;20494;-51
2020/12/02 02:54:34;;;;;;;0.20;0.10;;;;;;;3.19;100.00;100554.13;5054340;28;20512;-51
2020/12/02 02:57:00;;;;;;;0.20;0.10;;;;;;;3.26;100.00;100562.03;5048357;28;20475;-51
2020/12/02 02:59:26;;;;;;;0.20;0.10;;;;;;;3.37;100.00;100559.47;5053993;28;20558;-51
2020/12/02 03:01:52;;;;;;;0.50;0.50;;;;;;;3.43;100.00;100553.38;5053794;28;20442;-51
2020/12/02 03:04:18;;;;;;;0.20;0.10;;;;;;;3.36;100.00;100557.69;5054171;28;20450;-51
2020/12/02 03:06:45;;;;;;;0.47;0.47;;;;;;;3.31;100.00;100562.06;5053942;28;20474;-52
2020/12/02 03:09:12;;;;;;;0.20;0.10;;;;;;;3.41;100.00;100566.47;5053755;28;20504;-51
2020/12/02 03:11:39;;;;;;;0.20;0.10;;;;;;;3.39;100.00;100567.34;5054017;28;20482;-51
2020/12/02 03:14:06;;;;;;;0.20;0.10;;;;;;;3.40;100.00;100561.22;5054184;28;20801;-51
2020/12/02 03:16:38;;;;;;;0.20;0.10;;;;;;;3.40;100.00;100566.47;5053675;28;20446;-51
2020/12/02 03:19:16;;;;;;;0.20;0.10;;;;;;;3.60;100.00;100567.44;5053748;28;20454;-53
2020/12/02 03:21:42;;;;;;;0.20;0.20;;;;;;;3.61;100.00;100565.69;5041309;28;20438;-52
2020/12/02 03:24:09;;;;;;;0.20;0.10;;;;;;;3.42;100.00;100564.72;5053409;28;20447;-52
2020/12/02 03:26:37;;;;;;;0.20;0.10;;;;;;;3.42;100.00;100572.59;5046587;28;20451;-52
2020/12/02 03:29:04;;;;;;;0.20;0.10;;;;;;;3.28;100.00;100562.91;5047939;28;21021;-51
2020/12/02 03:31:31;;;;;;;0.30;0.30;;;;;;;3.24;100.00;100571.66;5045337;28;20499;-53
2020/12/02 03:33:57;;;;;;;0.20;0.20;;;;;;;3.36;100.00;100567.34;5048029;28;20523;-51
2020/12/02 03:36:24;;;;;;;0.20;0.10;;;;;;;3.58;100.00;100561.31;5053165;28;20446;-52
2020/12/02 03:38:51;;;;;;;0.20;0.10;;;;;;;3.72;100.00;100561.38;5050837;28;20974;-51
2020/12/02 03:41:19;;;;;;;0.20;0.10;;;;;;;3.65;100.00;100555.19;5042403;28;20453;-53
2020/12/02 03:43:46;;;;;;;0.20;0.10;;;;;;;3.50;100.00;100550.75;5052913;28;20532;-52
2020/12/02 03:46:12;;;;;;;0.20;0.13;;;;;;;3.61;100.00;100555.19;5053058;28;20517;-51
2020/12/02 03:48:39;;;;;;;0.20;0.10;;;;;;;3.47;100.00;100557.75;5052888;28;20478;-52
2020/12/02 03:51:06;;;;;;;0.20;0.10;;;;;;;3.42;100.00;100564.72;5053197;28;20501;-51
2020/12/02 03:53:32;;;;;;;0.20;0.20;;;;;;;3.33;100.00;100564.69;5052860;28;20454;-52
2020/12/02 03:55:58;;;;;;;0.20;0.10;;;;;;;3.46;100.00;100563.88;5050880;28;20454;-51
2020/12/02 03:58:25;;;;;;;0.20;0.10;;;;;;;3.31;100.00;100548.94;5049426;28;20474;-52
2020/12/02 04:00:51;;;;;;;0.20;0.10;;;;;;;3.49;100.00;100551.63;5052856;28;20795;-52
2020/12/02 04:03:17;;;;;;;0.20;0.10;;;;;;;3.32;100.00;100555.06;5052671;28;20451;-51
2020/12/02 04:05:45;;;;;;;0.20;0.10;;;;;;;3.37;100.00;100546.31;5052677;28;20941;-51
2020/12/02 04:08:11;;;;;;;0.20;0.10;;;;;;;3.66;100.00;100543.81;5052861;28;20475;-51
2020/12/02 04:10:37;;;;;;;0.20;0.10;;;;;;;3.50;100.00;100549.88;5052823;28;20518;-51
2020/12/02 04:13:04;;;;;;;0.30;0.10;;;;;;;3.49;100.00;100543.75;5051359;28;20936;-51
2020/12/02 04:15:31;;;;;;;0.20;0.10;;;;;;;3.53;100.00;100542.00;5052398;28;20457;-52
2020/12/02 04:17:57;;;;;;;0.20;0.10;;;;;;;3.51;100.00;100543.75;5052225;28;20524;-51
2020/12/02 04:20:24;;;;;;;0.20;0.10;;;;;;;3.42;100.00;100544.56;5052513;28;20457;-51
2020/12/02 04:22:53;;;;;;;0.20;0.10;;;;;;;3.30;100.00;100543.66;5052891;28;20852;-51
2020/12/02 04:25:22;;;;;;;0.20;0.10;;;;;;;3.33;100.00;100541.06;5052502;28;20466;-53
2020/12/02 04:27:49;;;;;;;0.20;0.10;;;;;;;3.24;100.00;100545.38;5040066;28;20471;-55
2020/12/02 04:30:15;;;;;;;0.20;0.20;;;;;;;3.56;100.00;100542.00;5052216;28;20462;-55
2020/12/02 04:32:42;;;;;;;0.20;0.10;;;;;;;3.28;100.00;100544.50;5052088;28;20521;-55
2020/12/02 04:35:09;;;;;;;0.20;0.10;;;;;;;3.42;100.00;100541.06;5052305;28;20458;-55
2020/12/02 04:37:36;;;;;;;0.20;0.10;;;;;;;3.35;100.00;100534.94;5051675;28;20988;-55
2020/12/02 04:40:14;;;;;;;0.20;0.10;;;;;;;3.21;100.00;100541.88;5038771;28;20849;-55
2020/12/02 04:42:46;;;;;;;0.20;0.10;;;;;;;2.96;100.00;100535.59;5039616;28;20453;-55
2020/12/02 04:45:15;;;;;;;0.20;0.10;;;;;;;2.99;100.00;100535.59;5051755;28;20489;-55
2020/12/02 04:47:43;;;;;;;0.30;0.10;;;;;;;2.89;100.00;100537.31;5052259;28;20501;-55
2020/12/02 04:50:17;;;;;;;0.20;0.10;;;;;;;2.90;100.00;100530.31;5038261;28;20448;-55
2020/12/02 04:53:07;;;;;;;0.20;0.10;;;;;;;2.94;100.00;100529.47;5052206;28;20493;-55
2020/12/02 04:55:34;;;;;;;0.40;0.40;;;;;;;3.02;100.00;100533.03;5034804;28;20450;-55
2020/12/02 04:58:01;;;;;;;0.20;0.20;;;;;;;3.08;100.00;100533.03;5046782;28;20473;-55
2020/12/02 05:00:31;;;;;;;0.20;0.13;;;;;;;2.95;100.00;100534.72;5051686;28;20454;-55
2020/12/02 05:03:13;;;;;;;0.20;0.10;;;;;;;2.82;100.00;100539.88;5051686;28;20451;-55
2020/12/02 05:05:39;;;;;;;0.20;0.10;;;;;;;2.74;100.00;100531.06;5052035;28;20917;-55
2020/12/02 05:08:30;;;;;;;0.70;0.70;;;;;;;2.71;100.00;100536.28;5051621;28;20991;-55
2020/12/02 05:10:57;;;;;;;0.20;0.10;;;;;;;2.79;100.00;100529.38;5052096;28;20474;-55
2020/12/02 05:13:25;;;;;;;0.20;0.10;;;;;;;2.83;100.00;100537.25;5052107;28;20454;-55
2020/12/02 05:16:10;;;;;;;0.20;0.10;;;;;;;2.74;100.00;100533.69;5053712;28;20451;-55
2020/12/02 05:18:36;;;;;;;0.20;0.10;;;;;;;2.79;100.00;100532.88;5055883;28;20470;-55
2020/12/02 05:21:04;;;;;;;0.20;0.10;;;;;;;2.96;100.00;100533.84;5055569;28;20447;-54
2020/12/02 05:23:30;;;;;;;0.20;0.10;;;;;;;3.03;100.00;100537.41;5056046;28;20922;-54
2020/12/02 05:25:56;;;;;;;0.20;0.10;;;;;;;3.04;100.00;100536.53;5054063;28;20447;-55
2020/12/02 05:28:40;;;;;;;0.20;0.10;;;;;;;3.01;100.00;100536.47;5034465;28;20512;-56
2020/12/02 05:31:14;;;;;;;0.30;0.20;;;;;;;3.11;100.00;100540.94;5054122;28;20561;-55
2020/12/02 05:33:41;;;;;;;0.20;0.20;;;;;;;3.10;100.00;100539.19;5055925;28;20500;-54
2020/12/02 05:36:18;;;;;;;0.20;0.10;;;;;;;3.07;100.00;100546.16;5055696;28;20462;-55
2020/12/02 05:39:03;;;;;;;0.20;0.10;;;;;;;2.92;100.00;100542.56;5054628;28;20500;-55
2020/12/02 05:41:31;;;;;;;0.20;0.10;;;;;;;2.73;100.00;100543.31;5046418;28;20442;-58
2020/12/02 05:44:17;;;;;;;0.20;0.10;;;;;;;2.68;100.00;100538.03;5055367;28;20446;-55
2020/12/02 05:46:49;;;;;;;0.20;0.10;;;;;;;2.74;100.00;100533.69;5054978;28;21010;-54
2020/12/02 05:49:41;;;;;;;0.20;0.10;;;;;;;2.66;100.00;100536.25;5055825;28;20450;-54
2020/12/02 05:52:13;;;;;;;0.30;0.10;;;;;;;2.54;100.00;100531.81;5055806;28;20628;-54
2020/12/02 05:54:40;;;;;;;0.20;0.10;;;;;;;2.56;100.00;100523.94;5055321;28;20872;-55
2020/12/02 05:57:14;;;;;;;0.20;0.10;;;;;;;2.70;100.00;100521.41;5050124;28;20524;-54
2020/12/02 05:59:40;;;;;;;0.20;0.10;;;;;;;2.63;100.00;100523.13;5055106;28;20849;-55
2020/12/02 06:02:07;;;;;;;0.20;0.10;;;;;;;2.66;100.00;100516.16;5055623;28;20496;-55
2020/12/02 06:04:33;;;;;;;0.20;0.10;;;;;;;2.68;100.00;100521.41;5055251;28;20967;-55
2020/12/02 06:06:59;;;;;;;0.20;0.17;;;;;;;2.60;100.00;100525.72;5055256;28;20470;-55
2020/12/02 06:09:39;;;;;;;0.20;0.10;;;;;;;2.67;100.00;100517.91;5054977;28;20508;-55
2020/12/02 06:12:10;;;;;;;0.20;0.10;;;;;;;2.85;100.00;100519.75;5055358;28;20486;-56
2020/12/02 06:14:36;;;;;;;0.20;0.10;;;;;;;2.75;100.00;100517.09;5055284;28;20450;-55
2020/12/02 06:17:04;;;;;;;0.20;0.10;;;;;;;2.73;100.00;100508.31;5054826;28;20463;-55
2020/12/02 06:19:47;;;;;;;0.20;0.10;;;;;;;2.87;100.00;100509.28;5054923;28;20500;-55
2020/12/02 06:22:31;;;;;;;0.20;0.10;;;;;;;2.72;100.00;100507.44;5055047;28;20936;-55
2020/12/02 06:24:57;;;;;;;0.27;0.17;;;;;;;2.79;100.00;100505.75;5043419;28;20500;-55
2020/12/02 06:27:29;;;;;;;0.20;0.10;;;;;;;2.77;100.00;100512.72;5041099;28;20475;-55
2020/12/02 06:30:04;;;;;;;0.20;0.10;;;;;;;2.72;100.00;100504.81;5054696;28;20457;-55
2020/12/02 06:32:32;;;;;;;0.20;0.10;;;;;;;2.60;100.00;100512.59;5054550;28;20485;-55
2020/12/02 06:35:12;;;;;;;0.20;0.10;;;;;;;2.61;100.00;100512.63;5054913;28;20462;-56
2020/12/02 06:37:38;;;;;;;0.20;0.10;;;;;;;2.57;100.00;100516.06;5054536;28;20455;-55
2020/12/02 06:40:05;;;;;;;0.30;0.20;;;;;;;2.67;100.00;100511.78;5041930;28;20448;-55
2020/12/02 06:42:37;;;;;;;0.20;0.10;;;;;;;2.65;100.00;100517.03;5054057;28;20443;-55
2020/12/02 06:45:23;;;;;;;0.20;0.10;;;;;;;2.52;100.00;100514.31;5054203;28;20600;-56
2020/12/02 06:47:49;;;;;;;0.20;0.10;;;;;;;2.51;100.00;100513.41;5054425;28;20470;-55
2020/12/02 06:50:23;;;;;;;0.20;0.10;;;;;;;2.45;100.00;100505.50;5054781;28;20822;-55
2020/12/02 06:52:49;;;;;;;0.20;0.10;;;;;;;2.47;100.00;100511.66;5044523;28;20999;-55
2020/12/02 06:55:22;;;;;;;0.20;0.20;;;;;;;2.59;100.00;100506.47;5051319;28;20451;-55
2020/12/02 06:58:01;;;;;;;0.20;0.10;;;;;;;2.56;100.00;100501.19;5049075;28;20467;-55
2020/12/02 07:00:40;;;;;;;0.20;0.10;;;;;;;2.73;100.00;100503.06;5053878;28;20443;-55
2020/12/02 07:03:19;;;;;;;0.30;0.10;;;;;;;2.70;100.00;100508.28;5054473;28;20461;-55
2020/12/02 07:05:45;;;;;;;0.20;0.20;;;;;;;2.62;100.00;100506.50;5054114;28;20483;-55
2020/12/02 07:08:23;;;;;;;0.27;0.17;;;;;;;2.56;100.00;100514.31;5054351;28;20914;-55
2020/12/02 07:11:05;;;;;;;0.20;0.10;;;;;;;2.63;100.00;100507.38;5052759;28;20500;-55
2020/12/02 07:13:36;;;;;;;0.20;0.10;;;;;;;2.50;100.00;100514.28;5041154;28;20871;-55
2020/12/02 07:16:12;;;;;;;0.20;0.10;;;;;;;2.48;100.00;100516.03;5052483;28;20449;-55
2020/12/02 07:18:38;;;;;;;0.30;0.20;;;;;;;2.47;100.00;100510.75;5054210;28;20470;-55
2020/12/02 07:21:19;;;;;;;0.20;0.10;;;;;;;2.43;100.00;100504.59;5040642;28;20444;-55
2020/12/02 07:23:45;;;;;;;0.20;0.13;;;;;;;2.41;100.00;100505.47;5054353;28;20450;-55
2020/12/02 07:26:13;;;;;;;0.20;0.10;;;;;;;2.38;100.00;100516.81;5050285;28;20452;-55
2020/12/02 07:28:39;;;;;;;0.20;0.20;;;;;;;2.38;100.00;100503.69;5045194;28;20582;-55
2020/12/02 07:31:22;;;;;;;0.20;0.20;;;;;;;2.39;100.00;100508.06;5053661;28;20597;-55
2020/12/02 07:34:13;;;;;;;0.20;0.10;;;;;;;2.43;100.00;100509.84;5053796;28;20442;-55
2020/12/02 07:36:39;;;;;;;0.20;0.10;;;;;;;2.42;100.00;100515.09;5053664;28;20474;-55
2020/12/02 07:39:15;;;;;;;0.20;0.10;;;;;;;2.39;100.00;100505.44;5049245;28;20447;-55
2020/12/02 07:42:17;;;;;;;0.20;0.10;;;;;;;2.45;100.00;100513.34;5045933;28;20447;-55
2020/12/02 07:44:49;;;;;;;0.20;0.20;;;;;;;2.46;100.00;100504.63;5044189;28;20458;-55
2020/12/02 07:47:17;;;;;;;0.20;0.10;;;;;;;2.52;100.00;100506.44;5053779;28;20474;-54
2020/12/02 07:49:54;;;;;;;0.20;0.10;;;;;;;2.57;100.00;100505.56;5053576;28;20450;-54
2020/12/02 07:52:33;;;;;;;0.20;0.10;;;;;;;2.61;100.00;100511.75;5040327;28;20540;-54
2020/12/02 07:55:00;;;;;;;0.20;0.10;;;;;;;2.46;100.00;100515.09;5053358;28;20462;-54
2020/12/02 07:57:27;;;;;;;0.20;0.10;;;;;;;2.44;100.00;100510.72;5047785;28;20475;-54
2020/12/02 08:00:16;;;;;;;0.20;0.10;;;;;;;2.38;100.00;100504.56;5053242;28;20447;-54
2020/12/02 08:02:45;;;;;;;0.20;0.10;;;;;;;2.51;100.00;100513.41;5050364;28;20462;-54
2020/12/02 08:05:32;;;;;;;0.20;0.10;;;;;;;2.62;100.00;100514.38;5053104;28;20816;-54
2020/12/02 08:07:59;;;;;;;0.30;0.20;;;;;;;2.53;100.00;100516.94;5052805;28;20528;-55
2020/12/02 08:10:32;;;;;;;0.20;0.10;;;;;;;2.76;100.00;100517.09;5053302;28;20451;-55
2020/12/02 08:13:01;;;;;;;0.20;0.10;;;;;;;2.66;100.00;100521.41;5052843;28;20588;-55
2020/12/02 08:15:28;;;;;;;0.20;0.10;;;;;;;2.55;100.00;100519.56;5053284;28;20446;-54
2020/12/02 08:18:16;;;;;;;0.30;0.20;;;;;;;2.61;100.00;100519.63;5050069;28;20490;-55
2020/12/02 08:20:47;;;;;;;0.20;0.10;;;;;;;2.63;100.00;100523.13;5046658;28;20446;-55
2020/12/02 08:23:26;;;;;;;0.20;0.10;;;;;;;2.86;100.00;100521.53;5052500;28;20952;-55
2020/12/02 08:26:18;;;;;;;0.30;0.30;;;;;;;2.88;100.00;100518.94;5051916;28;20443;-55
2020/12/02 08:28:45;;;;;;;0.20;0.10;;;;;;;2.89;100.00;100518.06;5043894;28;20489;-55
2020/12/02 08:31:23;;;;;;;0.20;0.10;;;;;;;2.66;100.00;100528.41;5052257;28;20487;-55
2020/12/02 08:34:10;;;;;;;0.20;0.10;;;;;;;2.66;100.00;100523.16;5052681;28;20446;-55
2020/12/02 08:36:40;;;;;;;0.20;0.10;;;;;;;2.80;100.00;100521.50;5052749;28;20443;-55
2020/12/02 08:39:08;;;;;;;0.20;0.10;;;;;;;2.67;100.00;100528.41;5047897;28;20455;-55
2020/12/02 08:41:44;;;;;;;0.20;0.10;;;;;;;2.56;100.00;100529.19;5033073;28;20448;-55
2020/12/02 08:44:15;;;;;;;0.20;0.10;;;;;;;2.46;100.00;100517.72;5051853;28;20450;-55
2020/12/02 08:46:46;;;;;;;0.20;0.10;;;;;;;2.38;100.00;100515.06;5051053;28;20533;-55
2020/12/02 08:49:12;;;;;;;0.20;0.10;;;;;;;2.46;100.00;100515.09;5052441;28;20871;-55
2020/12/02 08:51:38;;;;;;;0.20;0.10;;;;;;;2.44;100.00;100518.59;5051747;28;20897;-55
2020/12/02 08:54:16;;;;;;;0.20;0.10;;;;;;;2.43;100.00;100512.47;5052451;28;20501;-55
2020/12/02 08:56:43;;;;;;;0.20;0.10;;;;;;;2.55;100.00;100501.19;5045796;28;20893;-55
2020/12/02 08:59:11;;;;;;;0.20;0.10;;;;;;;2.53;100.00;100500.31;5052474;28;20870;-55
2020/12/02 09:01:37;;;;;;;0.20;0.10;;;;;;;2.50;100.00;100495.94;5052279;28;20497;-55
2020/12/02 09:04:04;;;;;;;0.20;0.10;;;;;;;2.64;100.00;100503.91;5052468;28;20459;-55
2020/12/02 09:06:30;;;;;;;0.20;0.10;;;;;;;2.48;100.00;100507.28;5052354;28;20454;-55
2020/12/02 09:08:57;;;;;;;0.20;0.13;;;;;;;2.51;100.00;100508.19;5052419;28;20466;-55
2020/12/02 09:11:25;;;;;;;0.20;0.10;;;;;;;2.51;100.00;100500.31;5052061;28;20486;-55
2020/12/02 09:13:53;;;;;;;0.20;0.10;;;;;;;2.45;100.00;100502.88;5051970;28;20447;-55
2020/12/02 09:16:22;;;;;;;0.20;0.10;;;;;;;2.49;100.00;100502.03;5052093;28;20851;-55
2020/12/02 09:18:48;;;;;;;0.20;0.10;;;;;;;2.62;100.00;100503.00;5051922;28;20453;-55
2020/12/02 09:21:14;;;;;;;0.30;0.30;;;;;;;2.70;100.00;100500.41;5052376;28;20450;-55
2020/12/02 09:23:41;;;;;;;0.20;0.10;;;;;;;2.61;100.00;100504.75;5052408;28;20446;-55
2020/12/02 09:26:07;;;;;;;0.20;0.10;;;;;;;2.53;100.00;100513.44;5048875;28;20956;-55
2020/12/02 09:28:33;;;;;;;0.20;0.10;;;;;;;2.71;100.00;100504.81;5043273;28;20528;-55
2020/12/02 09:30:59;;;;;;;0.20;0.10;;;;;;;2.67;100.00;100510.03;5050385;28;20489;-55
2020/12/02 09:33:25;;;;;;;0.20;0.10;;;;;;;2.85;100.00;100505.75;5050494;28;20855;-55
2020/12/02 09:35:51;;;;;;;0.20;0.10;;;;;;;2.88;100.00;100508.44;5051992;28;20447;-55
2020/12/02 09:38:18;;;;;;;0.20;0.13;;;;;;;2.78;100.00;100501.38;5051683;28;20474;-55
2020/12/02 09:40:44;;;;;;;0.20;0.10;;;;;;;2.86;100.00;100503.16;5038455;28;20451;-55
2020/12/02 09:43:33;;;;;;;0.20;0.10;;;;;;;2.89;100.00;100495.31;5043755;28;20873;-55
2020/12/02 09:46:06;;;;;;;0.20;0.10;;;;;;;2.68;100.00;100485.53;5041761;28;20463;-55
2020/12/02 09:48:33;;;;;;;0.20;0.10;;;;;;;2.95;100.00;100484.84;5047069;28;21047;-55
2020/12/02 09:51:09;;;;;;;0.20;0.10;;;;;;;2.86;100.00;100486.53;5051615;28;20952;-55
2020/12/02 09:53:35;;;;;;;0.20;0.10;;;;;;;2.93;100.00;100483.06;5051928;28;20446;-55
2020/12/02 09:56:04;;;;;;;0.20;0.10;;;;;;;2.81;100.00;100477.75;5051631;28;20461;-55
2020/12/02 09:58:30;;;;;;;0.20;0.10;;;;;;;2.95;100.00;100476.97;5051384;28;20474;-55
2020/12/02 10:01:10;;;;;;;0.20;0.10;;;;;;;2.72;100.00;100470.69;5051648;28;20461;-55
2020/12/02 10:03:51;;;;;;;0.20;0.10;;;;;;;2.63;100.00;100468.91;5055331;28;20516;-55
2020/12/02 10:06:27;;;;;;;0.20;0.10;;;;;;;2.64;100.00;100470.66;5055249;28;20450;-55
2020/12/02 10:09:18;;;;;;;0.20;0.10;;;;;;;2.94;100.00;100471.69;5055880;28;20525;-55
2020/12/02 10:11:56;;;;;;;0.20;0.10;;;;;;;2.97;100.00;100471.72;5055132;28;20474;-55
2020/12/02 10:14:30;;;;;;;0.97;0.97;;;;;;;2.65;100.00;100471.53;5049806;28;20825;-55
2020/12/02 10:17:21;;;;;;;0.20;0.10;;;;;;;2.53;100.00;100460.97;5054923;28;20993;-55
2020/12/02 10:20:13;;;;;;;0.20;0.10;;;;;;;2.58;100.00;100459.22;5055076;28;20478;-55
2020/12/02 10:23:07;;;;;;;0.20;0.10;;;;;;;2.60;100.00;100457.50;5054348;28;20473;-55
2020/12/02 10:25:39;;;;;;;0.20;0.10;;;;;;;2.80;100.00;100447.13;5053961;28;20439;-55
2020/12/02 10:28:08;;;;;;;0.20;0.10;;;;;;;2.68;100.00;100453.19;5042944;28;20505;-55
2020/12/02 10:30:59;;;;;;;0.20;0.10;;;;;;;2.58;100.00;100441.75;5054707;28;20813;-55
2020/12/02 10:33:45;;;;;;;0.20;0.10;;;;;;;2.63;100.00;100424.31;5050841;28;20458;-55
2020/12/02 10:36:12;;;;;;;0.40;0.40;;;;;;;2.64;100.00;100430.41;5042532;28;20858;-56
2020/12/02 10:38:54;;;;;;;0.20;0.10;;;;;;;2.89;100.00;100426.19;5053092;28;20474;-55
2020/12/02 10:41:35;;;;;;;0.20;0.10;;;;;;;2.67;100.00;100419.94;5044475;28;20832;-55
2020/12/02 10:44:15;;;;;;;0.20;0.10;;;;;;;2.68;100.00;100419.94;5054195;28;20519;-55
2020/12/02 10:47:12;;;;;;;0.20;0.20;;;;;;;2.73;100.00;100405.97;5054580;28;20478;-55
2020/12/02 10:49:39;;;;;;;0.20;0.10;;;;;;;2.66;100.00;100400.69;5054714;28;20443;-55
2020/12/02 10:52:07;;;;;;;0.20;0.10;;;;;;;2.69;100.00;100399.81;5054536;28;20758;-55
2020/12/02 10:54:35;;;;;;;0.20;0.10;;;;;;;2.73;100.00;100395.47;5054535;28;20538;-55
2020/12/02 10:57:24;;;;;;;0.20;0.10;;;;;;;2.62;100.00;100391.06;5054511;28;20467;-55
2020/12/02 10:59:52;;;;;;;0.20;0.10;;;;;;;2.84;100.00;100396.41;5054313;28;20447;-55
2020/12/02 11:02:38;;;;;;;0.20;0.10;;;;;;;2.86;100.00;100392.03;5054362;28;20466;-55
2020/12/02 11:05:07;;;;;;;0.20;0.10;;;;;;;2.72;100.00;100381.47;5054058;28;20447;-55
2020/12/02 11:07:54;;;;;;;0.20;0.10;;;;;;;2.70;100.00;100390.19;5054431;28;20478;-55
2020/12/02 11:10:31;;;;;;;0.20;0.10;;;;;;;2.87;100.00;100383.28;5041548;28;20439;-55
2020/12/02 11:13:09;;;;;;;0.50;0.50;;;;;;;2.87;100.00;100376.28;5045593;28;20491;-55
2020/12/02 11:15:57;;;;;;;0.20;0.10;;;;;;;2.80;100.00;100374.50;5054371;28;20446;-55
2020/12/02 11:18:54;;;;;;;0.20;0.10;;;;;;;2.86;100.00;100366.66;5039101;28;20474;-55
2020/12/02 11:21:41;;;;;;;0.20;0.10;;;;;;;2.74;100.00;100363.09;5044964;28;20464;-54
2020/12/02 11:24:35;;;;;;;0.20;0.10;;;;;;;2.60;100.00;100357.78;5040612;28;20467;-56
2020/12/02 11:27:03;;;;;;;0.30;0.20;;;;;;;2.59;100.00;100354.28;5054299;28;20499;-56
2020/12/02 11:29:30;;;;;;;0.30;0.20;;;;;;;2.84;100.00;100354.41;5053862;28;20864;-56
2020/12/02 11:31:59;;;;;;;0.20;0.10;;;;;;;2.84;100.00;100349.16;5047234;28;20488;-54
2020/12/02 11:34:53;;;;;;;0.20;0.10;;;;;;;2.63;100.00;100344.72;5050887;28;20960;-55
2020/12/02 11:37:19;;;;;;;0.20;0.10;;;;;;;2.58;100.00;100343.78;5053807;28;20459;-56
2020/12/02 11:40:08;;;;;;;0.20;0.10;;;;;;;2.73;100.00;100337.72;5044262;28;20471;-55
2020/12/02 11:42:41;;;;;;;0.20;0.10;;;;;;;2.68;100.00;100340.34;5052486;28;20447;-56
2020/12/02 11:45:16;;;;;;;0.20;0.10;;;;;;;2.67;100.00;100323.72;5053043;28;20450;-56
2020/12/02 11:47:46;;;;;;;0.20;0.10;;;;;;;2.82;100.00;100322.03;5043002;28;20478;-56
2020/12/02 11:50:21;;;;;;;0.20;0.10;;;;;;;2.72;100.00;100326.34;5040373;28;20459;-56